createdAt,value
2017-09-13T00:01:04.798Z,70.44
2017-09-13T00:03:33.822Z,70.33
2017-09-13T00:06:02.065Z,70.22
2017-09-13T00:08:31.081Z,70.20
2017-09-13T00:10:59.338Z,70.22
2017-09-13T00:13:28.347Z,70.09
2017-09-13T00:15:56.602Z,70.01
2017-09-13T00:18:25.606Z,70.05
2017-09-13T00:20:54.627Z,69.97
2017-09-13T00:23:22.869Z,69.87
2017-09-13T00:25:51.885Z,69.70
2017-09-13T00:28:20.127Z,69.81
2017-09-13T00:30:48.376Z,69.77
2017-09-13T00:33:16.619Z,69.86
2017-09-13T00:35:44.875Z,69.71
2017-09-13T00:38:13.886Z,69.66
2017-09-13T00:40:42.142Z,69.16
2017-09-13T00:43:11.154Z,68.83
2017-09-13T00:45:39.398Z,68.83
2017-09-13T00:48:08.405Z,68.63
2017-09-13T00:50:36.657Z,68.62
2017-09-13T00:53:04.903Z,68.55
2017-09-13T00:55:33.150Z,68.39
2017-09-13T00:58:01.401Z,68.17
2017-09-13T01:00:30.423Z,68.05
2017-09-13T01:02:58.659Z,67.71
2017-09-13T01:05:27.681Z,67.56
2017-09-13T01:07:55.918Z,67.61
2017-09-13T01:10:24.169Z,68.13
2017-09-13T01:12:52.424Z,67.76
2017-09-13T01:15:20.679Z,68.02
2017-09-13T01:17:48.918Z,68.04
2017-09-13T01:20:17.942Z,67.98
2017-09-13T01:22:46.181Z,68.20
2017-09-13T01:25:14.433Z,68.32
2017-09-13T01:27:42.678Z,68.48
2017-09-13T01:30:10.930Z,68.54
2017-09-13T01:32:39.936Z,68.52
2017-09-13T01:35:08.194Z,68.70
2017-09-13T01:37:37.203Z,69.01
2017-09-13T01:40:05.461Z,69.09
2017-09-13T01:42:34.469Z,69.39
2017-09-13T01:45:02.725Z,69.59
2017-09-13T01:47:31.741Z,69.94
2017-09-13T01:49:59.999Z,70.15
2017-09-13T01:52:29.005Z,69.98
2017-09-13T01:54:57.263Z,69.63
2017-09-13T01:57:26.269Z,69.36
2017-09-13T01:59:54.529Z,69.24
2017-09-13T02:02:22.767Z,69.34
2017-09-13T02:04:51.029Z,68.85
2017-09-13T02:07:19.269Z,69.08
2017-09-13T02:09:48.298Z,68.91
2017-09-13T02:12:16.551Z,69.04
2017-09-13T02:14:44.798Z,68.71
2017-09-13T02:17:13.040Z,68.77
2017-09-13T02:19:41.289Z,68.68
2017-09-13T02:22:09.537Z,68.66
2017-09-13T02:24:38.559Z,68.40
2017-09-13T02:27:06.835Z,68.03
2017-09-13T02:29:35.826Z,68.44
2017-09-13T02:32:04.077Z,68.62
2017-09-13T02:34:33.101Z,68.41
2017-09-13T02:37:01.344Z,68.51
2017-09-13T02:39:30.366Z,68.44
2017-09-13T02:41:58.606Z,68.16
2017-09-13T02:44:27.622Z,68.23
2017-09-13T02:46:55.866Z,68.12
2017-09-13T02:49:24.885Z,67.90
2017-09-13T02:51:53.125Z,67.47
2017-09-13T02:54:21.382Z,67.41
2017-09-13T02:56:49.630Z,67.47
2017-09-13T02:59:17.893Z,67.22
2017-09-13T03:01:46.137Z,67.25
2017-09-13T03:04:15.150Z,66.88
2017-09-13T03:06:43.409Z,66.88
2017-09-13T03:09:12.426Z,66.87
2017-09-13T03:11:40.674Z,66.67
2017-09-13T13:20:49.806Z,51.08
2017-09-13T13:23:18.175Z,50.80
2017-09-13T13:25:46.438Z,49.56
2017-09-13T13:28:14.686Z,49.14
2017-09-13T13:30:43.704Z,48.09
2017-09-13T13:33:11.959Z,46.95
2017-09-13T13:35:40.206Z,46.49
2017-09-13T13:38:08.461Z,46.12
2017-09-13T13:40:36.705Z,46.01
2017-09-13T13:43:04.955Z,46.01
2017-09-13T13:45:33.965Z,46.61
2017-09-13T13:48:02.227Z,47.01
2017-09-13T13:50:30.487Z,46.15
2017-09-13T13:52:58.731Z,47.76
2017-09-13T13:55:26.983Z,49.03
2017-09-13T13:57:55.241Z,50.58
2017-09-13T14:00:23.500Z,51.33
2017-09-13T14:02:52.508Z,51.82
2017-09-13T14:05:20.765Z,52.53
2017-09-13T14:07:49.777Z,52.71
2017-09-13T14:10:18.034Z,53.76
2017-09-13T14:12:47.047Z,54.36
2017-09-13T14:15:15.295Z,54.58
2017-09-13T14:17:44.428Z,54.61
2017-09-13T14:20:12.679Z,55.09
2017-09-13T14:22:41.715Z,55.63
2017-09-13T14:25:09.988Z,56.17
2017-09-13T14:27:38.240Z,55.99
2017-09-13T14:30:06.492Z,56.30
2017-09-13T14:32:35.606Z,57.05
2017-09-13T14:35:03.867Z,57.26
2017-09-13T14:37:32.888Z,57.59
2017-09-13T14:40:01.139Z,57.86
2017-09-13T14:42:30.158Z,57.64
2017-09-13T14:44:58.411Z,58.48
2017-09-13T14:47:27.427Z,58.65
2017-09-13T14:49:55.670Z,58.25
2017-09-13T14:52:23.928Z,58.95
2017-09-13T14:54:52.183Z,59.27
2017-09-13T14:57:20.446Z,60.32
2017-09-13T14:59:48.690Z,60.92
2017-09-13T15:02:17.699Z,61.44
2017-09-13T15:04:45.952Z,61.70
2017-09-13T15:07:14.213Z,62.21
2017-09-13T15:09:42.463Z,62.37
2017-09-13T15:12:10.712Z,62.63
2017-09-13T15:14:38.963Z,62.89
2017-09-13T15:17:07.987Z,63.21
2017-09-13T15:19:36.244Z,62.88
2017-09-13T15:22:05.260Z,63.23
2017-09-13T15:24:33.519Z,63.55
2017-09-13T15:27:01.769Z,64.06
2017-09-13T15:29:30.019Z,64.88
2017-09-13T15:31:58.271Z,65.57
2017-09-13T15:34:26.541Z,66.78
2017-09-13T15:36:54.910Z,68.20
2017-09-13T15:39:23.171Z,69.17
2017-09-13T15:41:51.419Z,70.05
2017-09-13T15:44:19.676Z,71.28
2017-09-13T15:46:49.444Z,71.49
2017-09-13T15:49:17.713Z,72.00
2017-09-13T15:51:45.964Z,72.26
2017-09-13T15:54:14.207Z,72.41
2017-09-13T15:56:42.471Z,72.68
2017-09-13T15:59:10.728Z,72.35
2017-09-13T16:01:38.984Z,72.38
2017-09-13T16:04:07.298Z,72.12
2017-09-13T16:06:35.556Z,71.83
2017-09-13T16:09:03.812Z,71.34
2017-09-13T16:11:32.084Z,69.86
2017-09-13T16:14:00.346Z,68.05
2017-09-13T16:16:29.372Z,65.48
2017-09-13T16:18:57.620Z,63.42
2017-09-13T16:21:25.876Z,61.17
2017-09-13T16:23:54.123Z,61.02
2017-09-13T16:26:22.363Z,60.15
2017-09-13T16:28:50.615Z,60.34
2017-09-13T16:31:19.641Z,60.66
2017-09-13T16:33:47.904Z,60.59
2017-09-13T16:36:16.156Z,60.39
2017-09-13T16:38:45.188Z,60.65
2017-09-13T16:41:13.440Z,60.46
2017-09-13T16:43:42.458Z,60.61
2017-09-13T16:46:10.708Z,60.43
2017-09-13T16:48:38.971Z,60.95
2017-09-13T16:51:07.984Z,61.20
2017-09-13T16:53:36.266Z,61.92
2017-09-13T16:56:04.504Z,61.88
2017-09-13T16:58:33.529Z,61.36
2017-09-13T17:01:01.785Z,60.95
2017-09-13T17:03:30.799Z,58.48
2017-09-13T17:05:59.064Z,57.89
2017-09-13T17:08:27.319Z,57.78
2017-09-13T17:10:55.575Z,57.40
2017-09-13T17:13:23.815Z,57.29
2017-09-13T17:15:52.068Z,58.11
2017-09-13T17:18:21.088Z,57.88
2017-09-13T17:20:49.419Z,60.62
2017-09-13T17:23:18.435Z,63.61
2017-09-13T17:25:46.695Z,63.42
2017-09-13T17:28:15.711Z,62.68
2017-09-13T17:30:43.962Z,62.79
2017-09-13T17:33:12.222Z,64.02
2017-09-13T17:35:40.475Z,66.03
2017-09-13T17:38:08.743Z,68.20
2017-09-13T17:40:36.999Z,68.44
2017-09-13T17:43:05.274Z,67.81
2017-09-13T17:45:33.527Z,68.65
2017-09-13T17:48:01.785Z,69.81
2017-09-13T17:50:30.816Z,71.86
2017-09-13T17:52:59.093Z,71.10
2017-09-13T17:55:27.344Z,71.17
2017-09-13T17:57:56.378Z,72.20
2017-09-13T18:00:25.523Z,72.95
2017-09-13T18:02:53.811Z,74.02
2017-09-13T18:05:22.064Z,75.56
2017-09-13T18:07:50.334Z,76.73
2017-09-13T18:10:18.619Z,75.25
2017-09-13T18:12:47.469Z,75.60
2017-09-13T18:15:15.741Z,74.91
2017-09-13T18:20:18.539Z,74.90
2017-09-13T18:22:46.801Z,76.12
2017-09-13T18:25:15.080Z,77.43
2017-09-13T18:27:43.348Z,77.15
2017-09-13T18:30:11.623Z,77.47
2017-09-13T18:32:39.889Z,77.47
2017-09-13T18:35:08.152Z,77.13
2017-09-13T18:37:37.176Z,77.11
2017-09-13T18:40:05.435Z,77.30
2017-09-13T18:42:33.692Z,78.31
2017-09-13T18:45:02.717Z,78.04
2017-09-13T18:47:30.975Z,77.26
2017-09-13T18:49:59.241Z,77.56
2017-09-13T18:52:28.267Z,76.32
2017-09-13T18:54:56.520Z,76.09
2017-09-13T18:57:24.787Z,76.61
2017-09-13T18:59:53.047Z,77.31
2017-09-13T19:02:22.076Z,77.35
2017-09-13T19:04:50.337Z,77.73
2017-09-13T19:07:18.593Z,76.28
2017-09-13T19:09:47.603Z,76.37
2017-09-13T19:12:15.880Z,77.67
2017-09-13T19:14:44.137Z,78.67
2017-09-13T19:17:12.392Z,79.55
2017-09-13T19:19:40.646Z,79.47
2017-09-13T19:22:08.904Z,79.05
2017-09-13T19:24:37.169Z,80.20
2017-09-13T19:27:05.418Z,80.44
2017-09-13T19:29:34.444Z,80.91
2017-09-13T19:32:02.699Z,81.33
2017-09-13T19:34:30.964Z,81.63
2017-09-13T19:36:59.976Z,81.75
2017-09-13T19:39:28.249Z,81.96
2017-09-13T19:42:13.658Z,82.41
2017-09-13T19:44:41.929Z,82.63
2017-09-13T19:47:10.198Z,82.74
2017-09-13T19:49:38.479Z,83.07
2017-09-13T19:52:06.751Z,83.25
2017-09-13T19:54:35.012Z,83.56
2017-09-13T19:57:04.071Z,83.62
2017-09-13T19:59:32.348Z,83.58
2017-09-13T20:02:00.625Z,83.23
2017-09-13T20:04:28.892Z,83.51
2017-09-13T20:06:57.164Z,83.83
2017-09-13T20:09:25.476Z,83.80
2017-09-13T20:11:57.084Z,83.67
2017-09-13T20:14:38.326Z,83.79
2017-09-13T20:17:06.733Z,83.80
2017-09-13T20:19:35.021Z,83.94
2017-09-13T20:22:03.310Z,83.87
2017-09-13T20:24:31.624Z,83.75
2017-09-13T20:27:00.775Z,83.92
2017-09-13T20:29:29.068Z,84.13
2017-09-13T20:32:13.745Z,84.19
2017-09-13T20:34:59.689Z,84.08
2017-09-13T20:37:59.771Z,84.23
2017-09-13T20:40:28.225Z,84.14
2017-09-13T20:42:56.613Z,84.14
2017-09-13T20:45:25.684Z,84.20
2017-09-13T20:47:54.032Z,84.04
2017-09-13T20:50:22.442Z,84.11
2017-09-13T20:52:50.688Z,84.15
2017-09-13T20:55:18.948Z,84.27
2017-09-13T20:57:47.260Z,84.38
2017-09-13T21:00:16.337Z,84.40
2017-09-13T21:02:44.592Z,84.51
2017-09-13T21:05:12.851Z,84.49
2017-09-13T21:07:41.966Z,84.42
2017-09-13T21:10:10.241Z,84.38
2017-09-13T21:12:38.500Z,84.59
2017-09-13T21:15:07.540Z,84.58
2017-09-13T21:17:35.829Z,84.46
2017-09-13T21:20:04.118Z,84.52
2017-09-13T21:22:32.425Z,84.50
2017-09-13T21:25:04.606Z,84.59
2017-09-13T21:27:32.900Z,84.32
2017-09-13T21:30:01.176Z,84.46
2017-09-13T21:32:29.470Z,84.51
2017-09-13T21:34:57.766Z,84.70
2017-09-13T21:37:26.027Z,84.79
2017-09-13T21:39:54.318Z,84.65
2017-09-13T21:42:24.968Z,84.65
2017-09-13T21:48:37.519Z,84.73
2017-09-13T21:51:07.662Z,84.74
2017-09-13T21:53:35.996Z,84.82
2017-09-13T21:56:05.112Z,84.58
2017-09-13T21:58:51.324Z,84.60
2017-09-13T22:01:19.713Z,84.54
2017-09-13T22:03:48.033Z,84.36
2017-09-13T22:06:16.364Z,84.71
2017-09-13T22:08:44.672Z,84.61
2017-09-13T22:11:18.353Z,84.85
2017-09-13T22:13:47.392Z,84.87
2017-09-13T22:16:15.717Z,84.72
2017-09-13T22:18:44.088Z,84.99
2017-09-13T22:21:12.490Z,84.91
2017-09-13T22:23:40.798Z,84.97
2017-09-13T22:26:09.085Z,85.03
2017-09-13T22:31:51.997Z,85.01
2017-09-13T22:34:20.276Z,84.93
2017-09-13T22:36:48.573Z,85.06
2017-09-13T22:39:17.613Z,85.11
2017-09-13T22:41:45.869Z,85.11
2017-09-13T22:44:14.164Z,84.96
2017-09-13T22:46:42.572Z,85.07
2017-09-13T22:49:10.828Z,85.05
2017-09-13T22:51:39.084Z,85.18
2017-09-13T22:54:07.393Z,85.20
2017-09-13T22:56:35.707Z,85.19
2017-09-13T22:59:04.814Z,85.33
2017-09-13T23:01:38.724Z,85.44
2017-09-13T23:04:07.052Z,85.56
2017-09-13T23:06:35.320Z,85.70
2017-09-13T23:09:03.575Z,85.70
2017-09-13T23:11:31.848Z,85.80
2017-09-13T23:14:00.125Z,85.83
2017-09-13T23:16:28.384Z,85.76
2017-09-13T23:18:56.634Z,85.82
2017-09-13T23:21:25.681Z,85.87
2017-09-13T23:23:53.972Z,85.91
2017-09-13T23:26:22.232Z,85.80
2017-09-13T23:28:50.584Z,85.75
2017-09-13T23:31:18.932Z,85.85
2017-09-13T23:33:47.990Z,85.75
2017-09-13T23:36:16.302Z,85.77
2017-09-13T23:38:45.373Z,85.69
2017-09-13T23:41:13.681Z,85.65
2017-09-13T23:43:42.747Z,85.73
2017-09-13T23:46:11.082Z,85.80
2017-09-13T23:48:39.375Z,85.79
2017-09-13T23:51:07.661Z,85.85
2017-09-13T23:53:35.944Z,85.81
2017-09-13T23:56:04.226Z,85.81
2017-09-13T23:58:32.491Z,85.83
